createdAt,value
2022-10-19T00:01:04.893Z,1.50
2022-10-19T00:03:33.384Z,2.00
2022-10-19T00:06:01.189Z,1.92
2022-10-19T00:08:28.435Z,1.50
2022-10-19T00:10:55.657Z,1.40
2022-10-19T00:13:23.089Z,1.50
2022-10-19T00:15:50.373Z,2.15
2022-10-19T00:18:17.608Z,1.67
2022-10-19T00:20:44.830Z,1.55
2022-10-19T00:23:12.072Z,1.60
2022-10-19T00:25:39.279Z,1.90
2022-10-19T00:28:06.520Z,1.42
2022-10-19T00:30:38.410Z,1.40
2022-10-19T00:33:05.746Z,1.73
2022-10-19T00:35:32.979Z,1.70
2022-10-19T00:38:00.193Z,1.70
2022-10-19T00:40:27.467Z,1.80
2022-10-19T00:42:56.280Z,1.80
2022-10-19T00:45:23.566Z,1.90
2022-10-19T00:47:51.644Z,1.73
2022-10-19T00:50:19.447Z,1.70
2022-10-19T00:52:47.346Z,1.80
2022-10-19T00:55:14.776Z,1.65
2022-10-19T00:57:42.245Z,1.80
2022-10-19T01:00:10.198Z,1.90
2022-10-19T01:02:37.687Z,2.10
2022-10-19T01:05:06.153Z,2.00
2022-10-19T01:07:33.714Z,1.70
2022-10-19T01:10:02.292Z,2.00
2022-10-19T01:12:47.961Z,1.55
2022-10-19T01:15:27.117Z,1.67
2022-10-19T01:18:03.086Z,1.92
2022-10-19T01:21:07.653Z,1.83
2022-10-19T01:24:16.111Z,2.10
2022-10-19T01:27:16.916Z,2.00
2022-10-19T01:30:33.218Z,1.80
2022-10-19T01:33:24.999Z,2.00
2022-10-19T01:36:08.427Z,1.90
2022-10-19T01:38:57.434Z,2.15
2022-10-19T01:41:44.781Z,1.88
2022-10-19T01:44:38.262Z,2.10
2022-10-19T01:47:10.376Z,2.30
2022-10-19T01:49:47.059Z,1.98
2022-10-19T01:52:17.173Z,2.30
2022-10-19T01:54:49.065Z,2.13
2022-10-19T01:57:30.749Z,2.25
2022-10-19T01:59:58.652Z,2.60
2022-10-19T02:02:27.930Z,2.20
2022-10-19T02:04:57.443Z,2.22
2022-10-19T02:07:25.853Z,2.25
2022-10-19T02:09:53.356Z,2.15
2022-10-19T02:12:21.831Z,2.17
2022-10-19T02:14:55.868Z,2.45
2022-10-19T02:17:28.719Z,2.22
2022-10-19T02:19:57.066Z,2.10
2022-10-19T02:22:24.494Z,2.30
2022-10-19T02:24:51.781Z,2.03
2022-10-19T02:27:19.274Z,2.30
2022-10-19T02:29:46.911Z,2.20
2022-10-19T02:32:14.290Z,2.38
2022-10-19T02:34:42.401Z,2.33
2022-10-19T02:37:09.843Z,2.35
2022-10-19T02:39:38.130Z,2.15
2022-10-19T02:42:28.193Z,2.28
2022-10-19T02:45:08.921Z,2.33
2022-10-19T02:47:39.923Z,2.20
2022-10-19T02:50:08.886Z,2.53
2022-10-19T02:52:40.646Z,2.38
2022-10-19T02:55:08.992Z,2.65
2022-10-19T02:57:37.110Z,2.50
2022-10-19T03:00:06.908Z,2.20
2022-10-19T03:02:34.134Z,2.10
2022-10-19T03:05:01.465Z,2.17
2022-10-19T03:07:28.726Z,2.60
2022-10-19T03:09:55.976Z,2.08
2022-10-19T03:12:23.298Z,2.35
2022-10-19T03:14:50.506Z,2.20
2022-10-19T03:17:17.761Z,2.22
2022-10-19T03:19:45.142Z,2.20
2022-10-19T03:22:14.900Z,2.25
2022-10-19T03:24:42.218Z,2.30
2022-10-19T03:27:09.578Z,2.30
2022-10-19T03:29:36.804Z,2.15
2022-10-19T03:32:04.190Z,2.25
2022-10-19T03:34:31.586Z,2.28
2022-10-19T03:36:59.294Z,2.17
2022-10-19T03:39:26.622Z,2.30
2022-10-19T03:41:53.830Z,1.98
2022-10-19T03:44:21.350Z,2.20
2022-10-19T03:46:48.580Z,2.20
2022-10-19T03:49:16.054Z,2.20
2022-10-19T03:51:43.555Z,2.45
2022-10-19T03:54:16.131Z,2.22
2022-10-19T03:56:44.116Z,2.13
2022-10-19T03:59:14.611Z,2.65
2022-10-19T04:01:44.489Z,2.33
2022-10-19T04:04:17.769Z,2.08
2022-10-19T04:06:47.148Z,2.08
2022-10-19T04:09:17.635Z,2.03
2022-10-19T04:11:45.563Z,2.10
2022-10-19T04:14:22.664Z,2.20
2022-10-19T04:17:01.188Z,2.00
2022-10-19T04:19:28.603Z,2.10
2022-10-19T04:21:55.913Z,2.00
2022-10-19T04:24:23.760Z,1.90
2022-10-19T04:26:53.346Z,2.25
2022-10-19T04:29:25.022Z,1.98
2022-10-19T04:34:22.544Z,1.63
2022-10-19T04:36:49.942Z,2.15
2022-10-19T04:39:17.327Z,2.00
2022-10-19T04:41:44.588Z,1.80
2022-10-19T04:44:11.830Z,1.90
2022-10-19T04:46:39.138Z,2.08
2022-10-19T04:49:07.016Z,1.70
2022-10-19T04:51:34.963Z,1.90
2022-10-19T04:54:03.404Z,1.83
2022-10-19T04:56:32.281Z,1.50
2022-10-19T04:59:00.793Z,1.67
2022-10-19T05:01:31.427Z,1.70
2022-10-19T05:04:00.894Z,1.92
2022-10-19T05:06:29.305Z,1.92
2022-10-19T05:08:56.877Z,1.45
2022-10-19T05:11:24.178Z,1.67
2022-10-19T05:13:51.769Z,1.90
2022-10-19T05:16:22.570Z,1.40
2022-10-19T05:18:52.162Z,1.73
2022-10-19T05:21:21.772Z,1.50
2022-10-19T05:23:52.489Z,1.65
2022-10-19T05:26:21.828Z,1.75
2022-10-19T05:28:59.467Z,1.77
2022-10-19T05:31:29.615Z,1.50
2022-10-19T05:33:57.453Z,1.67
2022-10-19T05:36:27.737Z,1.30
2022-10-19T05:38:57.470Z,1.75
2022-10-19T05:41:26.146Z,1.63
2022-10-19T05:43:55.939Z,1.65
2022-10-19T05:46:24.848Z,1.45
2022-10-19T05:48:52.095Z,1.70
2022-10-19T05:51:21.127Z,1.50
2022-10-19T05:53:48.648Z,1.50
2022-10-19T05:56:18.988Z,1.73
2022-10-19T05:58:46.409Z,1.80
2022-10-19T06:01:15.407Z,1.45
2022-10-19T06:03:42.804Z,1.30
2022-10-19T06:06:10.534Z,1.40
2022-10-19T06:08:39.266Z,1.55
2022-10-19T06:11:36.442Z,1.40
2022-10-19T06:14:06.927Z,1.50
2022-10-19T06:16:35.462Z,1.88
2022-10-19T06:19:03.990Z,1.65
2022-10-19T06:21:32.202Z,1.40
2022-10-19T06:24:02.641Z,1.73
2022-10-19T06:26:31.158Z,1.30
2022-10-19T06:29:00.629Z,1.48
2022-10-19T06:31:38.024Z,1.60
2022-10-19T06:34:05.589Z,1.27
2022-10-19T06:36:33.204Z,1.40
2022-10-19T06:39:01.945Z,1.20
2022-10-19T06:41:30.900Z,1.70
2022-10-19T06:43:58.370Z,1.42
2022-10-19T06:46:26.976Z,1.30
2022-10-19T06:49:03.301Z,1.10
2022-10-19T06:51:34.088Z,1.38
2022-10-19T06:54:01.623Z,1.40
2022-10-19T06:56:28.868Z,1.48
2022-10-19T06:58:56.240Z,1.30
2022-10-19T07:01:24.302Z,1.30
2022-10-19T07:03:52.928Z,1.30
2022-10-19T07:06:20.951Z,1.20
2022-10-19T07:08:48.476Z,1.48
2022-10-19T07:11:17.532Z,1.30
2022-10-19T07:13:45.041Z,1.17
2022-10-19T07:16:18.005Z,1.20
2022-10-19T07:18:49.535Z,1.23
2022-10-19T07:21:18.230Z,1.00
2022-10-19T07:23:47.417Z,1.33
2022-10-19T07:26:18.065Z,1.00
2022-10-19T07:28:46.791Z,1.75
2022-10-19T07:31:17.885Z,1.20
2022-10-19T07:33:45.443Z,1.10
2022-10-19T07:36:14.048Z,1.15
2022-10-19T07:38:41.633Z,1.10
2022-10-19T07:41:14.687Z,1.10
2022-10-19T07:43:43.639Z,1.10
2022-10-19T07:46:20.268Z,0.98
2022-10-19T07:48:48.026Z,1.13
2022-10-19T07:51:17.481Z,1.00
2022-10-19T07:53:45.073Z,0.98
2022-10-19T07:56:26.595Z,1.20
2022-10-19T07:58:55.723Z,1.10
2022-10-19T08:01:26.003Z,1.00
2022-10-19T08:06:42.307Z,1.05
2022-10-19T08:09:11.299Z,0.88
2022-10-19T08:11:43.220Z,1.10
2022-10-19T08:14:10.542Z,1.10
2022-10-19T08:16:40.513Z,1.08
2022-10-19T08:19:12.311Z,1.02
2022-10-19T08:21:41.678Z,1.00
2022-10-19T08:24:10.332Z,0.98
2022-10-19T08:26:39.992Z,0.90
2022-10-19T08:29:13.127Z,0.93
2022-10-19T08:31:41.337Z,1.10
2022-10-19T08:34:08.853Z,1.00
2022-10-19T08:36:37.139Z,0.90
2022-10-19T08:39:08.467Z,0.90
2022-10-19T08:42:00.346Z,1.00
2022-10-19T08:44:45.400Z,0.98
2022-10-19T08:49:59.754Z,0.98
2022-10-19T08:52:34.814Z,0.82
2022-10-19T08:55:32.589Z,1.00
2022-10-19T08:58:42.300Z,0.90
2022-10-19T09:01:37.605Z,0.80
2022-10-19T09:04:15.083Z,0.80
2022-10-19T09:06:52.920Z,1.05
2022-10-19T09:09:21.362Z,1.00
2022-10-19T09:11:51.076Z,0.80
2022-10-19T09:14:31.778Z,0.70
2022-10-19T09:17:13.692Z,0.80
2022-10-19T09:19:40.901Z,1.00
2022-10-19T09:22:33.161Z,0.80
2022-10-19T09:25:18.371Z,0.85
2022-10-19T09:30:22.398Z,0.80
2022-10-19T09:32:57.677Z,0.73
2022-10-19T09:35:37.561Z,0.90
2022-10-19T09:38:07.279Z,1.08
2022-10-19T09:40:35.933Z,0.80
2022-10-19T09:43:19.728Z,0.82
2022-10-19T09:45:52.276Z,0.90
2022-10-19T09:48:44.168Z,0.70
2022-10-19T09:51:13.580Z,0.80
2022-10-19T09:53:53.155Z,0.90
2022-10-19T09:56:23.454Z,0.80
2022-10-19T09:58:53.952Z,0.90
2022-10-19T10:01:39.903Z,0.70
2022-10-19T10:04:19.389Z,1.00
2022-10-19T10:06:48.859Z,1.10
2022-10-19T10:09:18.285Z,0.77
2022-10-19T10:11:50.603Z,0.70
2022-10-19T10:14:23.467Z,0.80
2022-10-19T10:16:56.531Z,0.80
2022-10-19T10:19:29.198Z,1.00
2022-10-19T10:21:58.212Z,0.80
2022-10-19T10:24:30.989Z,0.80
2022-10-19T10:27:01.310Z,0.90
2022-10-19T10:29:36.884Z,0.80
2022-10-19T10:32:15.094Z,0.82
2022-10-19T10:34:50.939Z,1.00
2022-10-19T10:37:30.335Z,1.00
2022-10-19T10:40:01.927Z,0.80
2022-10-19T10:43:06.453Z,0.80
2022-10-19T10:46:00.020Z,1.00
2022-10-19T10:48:32.705Z,0.93
2022-10-19T10:51:02.235Z,0.70
2022-10-19T10:53:35.639Z,0.70
2022-10-19T10:56:04.731Z,0.82
2022-10-19T10:58:57.382Z,0.85
2022-10-19T11:01:32.402Z,0.90
2022-10-19T11:04:12.742Z,0.80
2022-10-19T11:06:47.707Z,0.80
2022-10-19T11:09:23.010Z,0.80
2022-10-19T11:11:56.093Z,0.70
2022-10-19T11:14:38.728Z,0.82
2022-10-19T11:17:14.283Z,0.70
2022-10-19T11:19:44.443Z,0.80
2022-10-19T11:22:40.425Z,0.60
2022-10-19T11:25:32.818Z,0.93
2022-10-19T11:28:12.311Z,0.65
2022-10-19T11:30:55.156Z,0.77
2022-10-19T11:33:39.062Z,0.90
2022-10-19T11:36:28.749Z,0.60
2022-10-19T11:39:13.975Z,0.60
2022-10-19T11:42:01.244Z,0.68
2022-10-19T11:44:31.456Z,0.70
2022-10-19T11:47:22.089Z,0.73
2022-10-19T11:50:31.092Z,0.70
2022-10-19T11:53:35.012Z,0.50
2022-10-19T11:56:39.126Z,0.70
2022-10-19T11:59:33.610Z,0.90
2022-10-19T12:02:24.341Z,0.88
2022-10-19T12:04:54.502Z,0.57
2022-10-19T12:07:46.710Z,0.90
2022-10-19T12:10:33.697Z,0.90
2022-10-19T12:13:09.030Z,0.60
2022-10-19T12:15:43.860Z,0.80
2022-10-19T12:18:43.723Z,0.80
2022-10-19T12:21:33.879Z,0.65
2022-10-19T12:24:05.124Z,0.75
2022-10-19T12:26:36.441Z,0.95
2022-10-19T12:29:32.158Z,0.65
2022-10-19T12:32:02.179Z,0.70
2022-10-19T12:34:41.771Z,0.70
2022-10-19T12:37:20.749Z,0.47
2022-10-19T12:40:08.463Z,0.82
2022-10-19T12:42:51.610Z,0.63
2022-10-19T12:45:44.967Z,1.25
2022-10-19T12:48:20.372Z,1.92
2022-10-19T12:50:50.584Z,1.80
2022-10-19T12:53:27.870Z,1.60
2022-10-19T12:56:13.235Z,1.33
2022-10-19T12:58:47.726Z,1.15
2022-10-19T13:01:29.251Z,1.35
2022-10-19T13:04:12.357Z,1.27
2022-10-19T13:06:50.098Z,1.35
2022-10-19T13:09:28.776Z,1.40
2022-10-19T13:12:21.642Z,1.08
2022-10-19T13:14:58.571Z,1.63
2022-10-19T13:17:35.031Z,1.77
2022-10-19T13:20:14.753Z,1.00
2022-10-19T13:22:46.794Z,0.93
2022-10-19T13:25:28.615Z,1.38
2022-10-19T13:28:01.936Z,0.95
2022-10-19T13:30:38.486Z,0.90
2022-10-19T13:33:30.324Z,1.00
2022-10-19T13:36:00.658Z,1.40
2022-10-19T13:38:45.774Z,0.90
2022-10-19T13:41:15.864Z,0.90
2022-10-19T13:44:04.015Z,0.80
2022-10-19T13:46:31.179Z,0.98
2022-10-19T13:49:16.320Z,0.85
2022-10-19T13:52:05.592Z,1.00
2022-10-19T13:54:44.810Z,0.85
2022-10-19T13:57:37.510Z,0.88
2022-10-19T14:00:19.777Z,1.00
2022-10-19T14:03:13.301Z,1.27
2022-10-19T14:05:43.352Z,0.90
2022-10-19T14:08:31.904Z,0.82
2022-10-19T14:11:04.930Z,1.10
2022-10-19T14:13:32.349Z,0.80
2022-10-19T14:16:02.886Z,0.85
2022-10-19T14:18:36.326Z,0.85
2022-10-19T14:21:08.877Z,0.73
2022-10-19T14:23:39.787Z,0.70
2022-10-19T14:26:19.528Z,0.90
2022-10-19T14:28:54.045Z,0.82
2022-10-19T14:33:57.567Z,0.90
2022-10-19T14:36:30.588Z,0.80
2022-10-19T14:38:57.859Z,0.80
2022-10-19T14:41:28.036Z,0.80
2022-10-19T14:43:59.970Z,0.73
2022-10-19T14:46:32.446Z,0.82
2022-10-19T14:49:02.532Z,1.15
2022-10-19T14:51:45.285Z,0.70
2022-10-19T14:54:38.612Z,0.52
2022-10-19T14:57:32.551Z,0.93
2022-10-19T15:00:04.302Z,0.63
2022-10-19T15:02:39.753Z,0.90
2022-10-19T15:05:28.024Z,0.70
2022-10-19T15:07:55.801Z,0.88
2022-10-19T15:10:45.701Z,0.80
2022-10-19T15:13:41.001Z,0.80
2022-10-19T15:18:55.480Z,0.90
2022-10-19T15:21:22.906Z,0.90
2022-10-19T15:23:52.436Z,0.95
2022-10-19T15:26:25.639Z,0.80
2022-10-19T15:28:54.595Z,0.80
2022-10-19T15:31:26.240Z,0.88
2022-10-19T15:33:56.113Z,1.00
2022-10-19T15:36:25.230Z,0.80
2022-10-19T15:39:06.270Z,0.95
2022-10-19T15:41:45.690Z,1.00
2022-10-19T15:44:33.085Z,0.73
2022-10-19T15:47:20.509Z,0.90
2022-10-19T15:50:02.305Z,1.05
2022-10-19T15:52:34.266Z,1.25
2022-10-19T15:55:03.088Z,1.23
2022-10-19T15:57:37.362Z,0.80
2022-10-19T16:02:39.638Z,1.10
2022-10-19T16:05:07.919Z,1.38
2022-10-19T16:07:38.619Z,1.33
2022-10-19T16:10:06.713Z,1.40
2022-10-19T16:12:33.977Z,1.17
2022-10-19T16:15:01.271Z,1.17
2022-10-19T16:17:28.544Z,1.10
2022-10-19T16:19:55.831Z,0.90
2022-10-19T16:22:23.081Z,1.20
2022-10-19T16:24:50.379Z,1.20
2022-10-19T16:27:17.754Z,1.20
2022-10-19T16:29:45.374Z,1.10
2022-10-19T16:32:12.672Z,1.33
2022-10-19T16:34:41.090Z,1.27
2022-10-19T16:37:08.351Z,1.00
2022-10-19T16:39:35.673Z,1.35
2022-10-19T16:42:03.122Z,1.30
2022-10-19T16:44:30.400Z,1.20
2022-10-19T16:46:58.348Z,1.00
2022-10-19T16:49:26.133Z,1.58
2022-10-19T16:51:56.506Z,1.20
2022-10-19T16:54:26.723Z,1.20
2022-10-19T16:56:55.637Z,1.17
2022-10-19T16:59:23.062Z,1.15
2022-10-19T17:01:50.660Z,1.02
2022-10-19T17:04:18.202Z,1.10
2022-10-19T17:06:45.521Z,1.27
2022-10-19T17:12:00.256Z,1.00
2022-10-19T17:14:27.565Z,1.02
2022-10-19T17:16:54.844Z,1.10
2022-10-19T17:19:22.902Z,1.30
2022-10-19T17:21:50.748Z,1.38
2022-10-19T17:24:22.130Z,1.17
2022-10-19T17:26:51.450Z,1.10
2022-10-19T17:29:20.151Z,1.08
2022-10-19T17:31:49.187Z,1.10
2022-10-19T17:34:17.170Z,1.10
2022-10-19T17:36:46.053Z,1.42
2022-10-19T17:39:19.455Z,1.02
2022-10-19T17:41:49.972Z,1.10
2022-10-19T17:44:18.868Z,1.52
2022-10-19T17:46:46.838Z,1.10
2022-10-19T17:49:14.713Z,1.02
2022-10-19T17:51:41.978Z,1.35
2022-10-19T17:54:13.026Z,1.40
2022-10-19T17:56:41.267Z,1.52
2022-10-19T17:59:09.229Z,1.35
2022-10-19T18:01:37.387Z,1.55
2022-10-19T18:04:05.051Z,1.73
2022-10-19T18:06:35.510Z,1.38
2022-10-19T18:09:06.297Z,1.20
2022-10-19T18:11:51.541Z,1.10
2022-10-19T18:14:18.946Z,1.40
2022-10-19T18:16:47.441Z,1.30
2022-10-19T18:19:16.344Z,1.30
2022-10-19T18:21:46.286Z,1.40
2022-10-19T18:24:19.554Z,1.20
2022-10-19T18:26:47.587Z,1.70
2022-10-19T18:29:21.950Z,1.45
2022-10-19T18:31:53.368Z,1.30
2022-10-19T18:34:23.887Z,1.17
2022-10-19T18:36:52.003Z,1.10
2022-10-19T18:39:19.500Z,1.30
2022-10-19T18:41:51.651Z,1.33
2022-10-19T18:44:23.630Z,1.35
2022-10-19T18:46:55.589Z,1.48
2022-10-19T18:49:23.913Z,1.70
2022-10-19T18:51:55.039Z,1.50
2022-10-19T18:54:24.275Z,1.33
2022-10-19T18:56:51.528Z,1.70
2022-10-19T18:59:19.147Z,1.63
2022-10-19T19:01:46.636Z,1.25
2022-10-19T19:04:13.901Z,1.50
2022-10-19T19:06:41.997Z,1.55
2022-10-19T19:09:11.406Z,1.40
2022-10-19T19:11:40.967Z,1.60
2022-10-19T19:14:21.039Z,1.63
2022-10-19T19:16:48.419Z,1.40
2022-10-19T19:19:18.071Z,1.35
2022-10-19T19:21:45.793Z,1.40
2022-10-19T19:24:16.216Z,1.48
2022-10-19T19:26:48.386Z,1.30
2022-10-19T19:29:16.721Z,1.52
2022-10-19T19:31:44.307Z,1.60
2022-10-19T19:34:11.835Z,1.60
2022-10-19T19:36:47.895Z,1.80
2022-10-19T19:39:18.713Z,1.70
2022-10-19T19:41:46.615Z,1.65
2022-10-19T19:44:13.978Z,1.67
2022-10-19T19:46:41.310Z,1.60
2022-10-19T19:49:08.791Z,1.60
2022-10-19T19:51:36.152Z,1.70
2022-10-19T19:54:04.093Z,1.52
2022-10-19T19:56:31.484Z,1.60
2022-10-19T19:59:00.254Z,1.52
2022-10-19T20:01:27.798Z,1.52
2022-10-19T20:03:57.273Z,2.08
2022-10-19T20:06:26.020Z,1.70
2022-10-19T20:08:54.794Z,1.50
2022-10-19T20:11:22.919Z,1.75
2022-10-19T20:13:51.058Z,1.70
2022-10-19T20:16:23.792Z,1.90
2022-10-19T20:18:59.938Z,1.90
2022-10-19T20:21:27.721Z,1.75
2022-10-19T20:23:54.953Z,1.88
2022-10-19T20:26:24.270Z,1.73
2022-10-19T20:28:52.031Z,1.70
2022-10-19T20:31:20.432Z,1.60
2022-10-19T20:33:48.196Z,1.70
2022-10-19T20:36:18.546Z,2.30
2022-10-19T20:38:49.452Z,1.70
2022-10-19T20:41:16.991Z,1.80
2022-10-19T20:43:44.365Z,2.00
2022-10-19T20:46:22.057Z,1.70
2022-10-19T20:48:49.778Z,2.10
2022-10-19T20:51:36.887Z,1.75
2022-10-19T20:54:07.215Z,1.60
2022-10-19T20:56:37.306Z,2.13
2022-10-19T20:59:07.894Z,1.70
2022-10-19T21:01:36.580Z,1.60
2022-10-19T21:04:06.153Z,1.60
2022-10-19T21:06:37.187Z,1.70
2022-10-19T21:09:04.982Z,1.65
2022-10-19T21:11:35.134Z,1.80
2022-10-19T21:14:05.027Z,1.67
2022-10-19T21:16:37.697Z,1.63
2022-10-19T21:19:13.983Z,2.10
2022-10-19T21:21:44.412Z,1.80
2022-10-19T21:24:14.237Z,1.83
2022-10-19T21:26:42.169Z,1.75
2022-10-19T21:29:10.755Z,1.98
2022-10-19T21:31:43.057Z,2.00
2022-10-19T21:34:15.200Z,1.70
2022-10-19T21:36:42.682Z,2.00
2022-10-19T21:39:10.020Z,1.90
2022-10-19T21:41:37.321Z,1.80
2022-10-19T21:44:04.777Z,1.90
2022-10-19T21:46:32.064Z,1.88
2022-10-19T21:48:59.329Z,1.73
2022-10-19T21:51:37.747Z,1.80
2022-10-19T21:54:07.164Z,2.10
2022-10-19T21:56:34.878Z,1.98
2022-10-19T21:59:02.419Z,1.95
2022-10-19T22:01:30.661Z,2.05
2022-10-19T22:03:59.958Z,1.90
2022-10-19T22:06:29.066Z,2.00
2022-10-19T22:08:57.348Z,1.98
2022-10-19T22:11:25.539Z,1.95
2022-10-19T22:13:57.516Z,1.98
2022-10-19T22:16:25.896Z,1.90
2022-10-19T22:18:53.468Z,2.30
2022-10-19T22:21:24.233Z,2.03
2022-10-19T22:23:53.711Z,2.17
2022-10-19T22:26:30.416Z,1.95
2022-10-19T22:28:59.381Z,2.13
2022-10-19T22:31:28.801Z,2.33
2022-10-19T22:33:56.114Z,2.30
2022-10-19T22:36:23.361Z,2.10
2022-10-19T22:38:50.668Z,1.85
2022-10-19T22:42:14.287Z,2.22
2022-10-19T22:44:41.534Z,2.08
2022-10-19T22:47:08.803Z,2.38
2022-10-19T22:49:36.628Z,2.47
2022-10-19T22:52:03.982Z,2.38
2022-10-19T22:54:31.254Z,2.03
2022-10-19T22:56:58.500Z,2.20
2022-10-19T22:59:25.712Z,2.30
2022-10-19T23:01:53.046Z,2.20
2022-10-19T23:04:21.173Z,2.05
2022-10-19T23:06:48.468Z,2.33
2022-10-19T23:09:15.693Z,2.50
2022-10-19T23:11:43.024Z,2.58
2022-10-19T23:14:10.290Z,2.45
2022-10-19T23:16:37.626Z,2.35
2022-10-19T23:19:04.877Z,2.20
2022-10-19T23:21:32.207Z,2.42
2022-10-19T23:23:59.442Z,2.42
2022-10-19T23:26:26.911Z,2.40
2022-10-19T23:28:54.176Z,2.45
2022-10-19T23:31:24.693Z,2.20
2022-10-19T23:33:53.336Z,2.45
2022-10-19T23:36:23.328Z,2.70
2022-10-19T23:38:52.401Z,2.40
2022-10-19T23:41:20.520Z,2.50
2022-10-19T23:43:47.903Z,2.65
2022-10-19T23:46:15.325Z,2.50
2022-10-19T23:48:42.754Z,2.30
2022-10-19T23:51:12.793Z,2.58
2022-10-19T23:53:42.092Z,2.30
2022-10-19T23:56:15.847Z,2.70
2022-10-19T23:58:43.718Z,2.38
